• Join FlightAware (Why Join?)
  • Login
  • US Flag 
11:58AM EDT


 

Airport Tracker/Info


-or-


 

Live Flight TrackerFlight Track Log ✈ N6792M ✈ 02-Jul-2013 ✈ KPWK - 3D2

Flight Track Log - Related Links

Times and Time Zones

All times are in EDT time to prevent confusion due to time zone crossing. See the N6792M flight status page for this flight to view local times or setup timezone preferences in your user account.

Time Position Orientation Groundspeed Altitude Reporting Facility
EDT Latitude Longitude Course Direction KTS MPH feet Rate Location/Type
03:33PM 42.1500 -87.9167 323° Northwest 85 98 1,700  Level Chicago TRACON
03:34PM 42.1667 -87.9333 323° Northwest 83 96 2,500 660 Climbing Chicago TRACON
03:35PM 42.1736 -87.9356 347° North 95 109 2,700 540 Climbing Chicago Center
03:36PM 42.1933 -87.9492 333° Northwest 84 97 3,400 660 Climbing Chicago Center
03:37PM 42.2131 -87.9611 336° Northwest 83 96 4,100 660 Climbing Chicago Center
03:38PM 42.2392 -87.9506 17° North 82 94 4,800 600 Climbing Chicago Center
03:39PM 42.2625 -87.9497 North 85 98 5,400 540 Climbing Chicago Center
03:40PM 42.2889 -87.9431 11° North 93 107 6,000 300 Climbing Chicago Center
03:41PM 42.3200 -87.9358 10° North 108 124 6,100  Climbing Chicago Center
03:42PM 42.3561 -87.9275 10° North 125 144 6,000 -60 Descending Chicago Center
03:43PM 42.3989 -87.9231 North 132 152 6,000  Level Chicago Center
03:44PM 42.4339 -87.9344 346° North 129 148 6,000  Level Chicago Center
03:45PM 42.4683 -87.9367 357° North 126 145 6,000  Level Chicago Center
03:46PM 42.5031 -87.9364 360° North 124 143 6,000  Level Chicago Center
03:47PM 42.5369 -87.9406 355° North 125 144 6,000  Level Chicago Center
03:48PM 42.5717 -87.9378 North 124 143 6,000  Level Chicago Center
03:49PM 42.6119 -87.9367 North 125 144 6,100  Climbing Chicago Center
03:50PM 42.6464 -87.9322 North 124 143 6,100  Level Chicago Center
03:51PM 42.6806 -87.9256 North 125 144 6,100  Level Chicago Center
03:52PM 42.7133 -87.9131 16° North 123 142 6,100  Level Chicago Center
03:53PM 42.7467 -87.9064 North 122 140 6,100  Level Chicago Center
03:54PM 42.7850 -87.8978 North 119 137 6,100  Level Chicago Center
03:55PM 42.8178 -87.8864 14° North 119 137 6,200  Climbing Chicago Center
03:57PM 42.8514 -87.8767 12° North 122 140 6,100 -60 Descending Chicago Center
03:58PM 42.8842 -87.8711 North 120 138 6,100  Level Chicago Center
03:59PM 42.9175 -87.8650 North 120 138 6,100  Level Chicago Center
04:00PM 42.9575 -87.8558 10° North 125 144 6,100  Level Chicago Center
04:01PM 42.9914 -87.8475 10° North 124 143 6,100  Level Chicago Center
04:02PM 43.0247 -87.8347 16° North 124 143 6,100 -60 Level Chicago Center
04:03PM 43.0572 -87.8261 11° North 122 140 6,000 -60 Descending Chicago Center
04:04PM 43.0892 -87.8164 13° North 119 137 6,000  Level Chicago Center
04:05PM 43.1272 -87.8033 14° North 120 138 6,100  Climbing Chicago Center
04:06PM 43.1578 -87.7900 18° North 118 136 6,100  Level Chicago Center
04:07PM 43.1914 -87.7797 13° North 121 139 6,100  Level Chicago Center
04:08PM 43.2242 -87.7672 16° North 122 140 6,100  Level Chicago Center
04:09PM 43.2572 -87.7522 18° North 124 143 6,100  Level Chicago Center
04:10PM 43.2964 -87.7414 11° North 123 142 6,100  Level Chicago Center
04:11PM 43.3297 -87.7331 10° North 123 142 6,100  Level Chicago Center
04:12PM 43.3628 -87.7217 14° North 122 140 6,100 -60 Level Chicago Center
04:13PM 43.3969 -87.7108 13° North 125 144 6,000  Descending Chicago Center
04:14PM 43.4300 -87.6994 14° North 124 143 6,100  Climbing Chicago Center
04:15PM 43.4692 -87.6875 12° North 123 142 6,100 -60 Level Chicago Center
04:16PM 43.5028 -87.6781 12° North 124 143 6,000 -60 Descending Chicago Center
04:17PM 43.5356 -87.6661 15° North 123 142 6,000  Level Chicago Center
04:18PM 43.5692 -87.6561 12° North 123 142 6,000  Level Chicago Center
04:19PM 43.6025 -87.6464 12° North 122 140 6,100  Climbing Chicago Center
04:20PM 43.6428 -87.6383 North 124 143 6,100  Level Chicago Center
04:21PM 43.6764 -87.6289 11° North 124 143 6,100 -60 Level Chicago Center
04:22PM 43.7094 -87.6219 North 123 142 6,000  Descending Chicago Center
04:23PM 43.7425 -87.6117 13° North 122 140 6,100  Climbing Chicago Center
04:24PM 43.7775 -87.6028 10° North 125 144 6,100 -60 Level Chicago Center
04:25PM 43.8181 -87.5936 North 127 146 6,000  Descending Chicago Center
04:27PM 43.8539 -87.5889 North 129 148 6,100  Climbing Chicago Center
04:28PM 43.8889 -87.5831 North 128 147 6,000  Descending Chicago Center
04:28PM 43.9053 -87.5778 13° North 128 147 6,100 60 Climbing Minneapolis Center
04:29PM 43.9389 -87.5639 17° North 127 146 6,100  Level Minneapolis Center
04:30PM 43.9794 -87.5517 12° North 129 148 6,100  Level Minneapolis Center
04:31PM 44.0144 -87.5419 11° North 129 148 6,100 -60 Level Minneapolis Center
04:32PM 44.0494 -87.5306 13° North 128 147 6,000  Descending Minneapolis Center
04:33PM 44.0850 -87.5214 10° North 129 148 6,100  Climbing Minneapolis Center
04:34PM 44.1194 -87.5086 15° North 128 147 6,100 -60 Level Minneapolis Center
04:35PM 44.1611 -87.4958 12° North 130 150 6,000  Descending Minneapolis Center
04:36PM 44.1906 -87.4872 12° North 130 150 6,100  Climbing Minneapolis Center
04:37PM 44.2322 -87.4758 11° North 130 150 6,100  Level Minneapolis Center
04:38PM 44.2700 -87.4664 10° North 133 153 6,100 -60 Level Minneapolis Center
04:39PM 44.3044 -87.4533 15° North 133 153 6,000  Descending Minneapolis Center
04:41PM 44.3450 -87.4400 13° North 128 147 6,100  Climbing Minneapolis Center
04:42PM 44.3811 -87.4292 12° North 131 151 6,000  Descending Minneapolis Center
04:43PM 44.4175 -87.4175 13° North 133 153 6,100  Climbing Minneapolis Center
04:44PM 44.4506 -87.4014 19° North 128 147 6,100  Level Minneapolis Center
04:45PM 44.4850 -87.3889 15° North 130 150 6,100  Level Minneapolis Center
04:46PM 44.5203 -87.3806 10° North 130 150 6,100 -60 Level Minneapolis Center
04:47PM 44.5636 -87.3675 12° North 131 151 6,000 -60 Descending Minneapolis Center
04:48PM 44.6006 -87.3569 11° North 133 153 6,000  Level Minneapolis Center
04:49PM 44.6350 -87.3456 13° North 131 151 6,000  Level Minneapolis Center
04:50PM 44.6703 -87.3325 15° North 130 150 6,100  Climbing Minneapolis Center
04:51PM 44.6972 -87.3228 14° North 130 150 6,100  Level Minneapolis Center
04:53PM 44.7483 -87.2846 28° Northeast  Level FlightAware Approximate
05:00PM 44.9907 -87.2065 10° North  Level FlightAware Approximate
05:01PM 45.0253 -87.1979 10° North  Level FlightAware Approximate
05:02PM 45.0598 -87.1892 10° North  Level FlightAware Approximate
05:03PM 45.0945 -87.1833 North  Level FlightAware Approximate
05:04PM 45.1296 -87.1833 360° North  Level FlightAware Approximate
05:05PM 45.1333 -87.1833 North  Level FlightAware Approximate
05:06PM 45.1354 -87.1879 North  Level Estimated
05:07PM 45.1333 -87.1833 North  Level FlightAware Approximate
05:08PM 45.1354 -87.1879 North  Level Estimated
05:09PM 45.1333 -87.1833 North  Level FlightAware Approximate
05:10PM 45.1354 -87.1879 North  Level Estimated